Airfield :
LOGIN :

Register | Disclaimer

   EN    FR    IT 

 










Legend :    VFR   Marginal VFR   IFR   Intensive IFR   Very Intensive IFR
Visi :
Ceiling :
>= 8 km
>= 3000ft
5 to 8 km
1000 to 3000 ft
1500m to 5 km
500 to 1000 ft
800 to 1500m
200 to 500 ft
< 800m
< 200 ft
Symbols :   Thunderstorms  Fog  Heavy snow  Heavy precipitations  Wind > 20 kt
SIGMETs :     Misc.  Thunderstorms  Icing  Turbulence  Mountain Waves  Volcanic Ashes







- Airport Elevation : 197 ft
- IATA code : XOG
- Download approach charts


LFMO - Orange

CURRENT METAR :
  • 172100Z AUTO 32007KT 290V350 CAVOK 06/01 Q1016 TEMPO 34015G25KT

EXPIRED METARs :
  • 172030Z AUTO 34009KT CAVOK 06/02 Q1016 TEMPO 34015G25KT
  • 172000Z AUTO 34010KT CAVOK 07/02 Q1015
  • 171930Z AUTO 34008KT CAVOK 07/03 Q1015 TEMPO 33015G25KT
  • 171900Z AUTO 31005KT CAVOK 07/04 Q1015 BECMG 33015KT
  • 171830Z AUTO 34006KT CAVOK 07/03 Q1015 NOSIG
  • 171800Z AUTO 34008KT CAVOK 09/05 Q1014 NOSIG

TAF TAF LFMO
Valid from the 17 at 21:00 until the 18 at 21:00 UTC


172000Z 1721/1821 33012KT CAVOK
TEMPO 1722/1803 34015G25KT
BECMG 1803/1805 35015G25KT
BECMG 1808/1810 35020G35KT
No reported NOTAMs for that airfield.



MET'MAP, your aeronautical weather chart ! - Copyright ORBIFLY December 2007 - Disclaimer

ORBIFLY MET'MAP TEAM :

Programming & Development : Alexandra Zaïnal
Concept & Development : Baudouin d'Aumeries
Co-Development & Prog : Marc-Olivier Méhu
Technical & hardware support : Manuel Goepfert

Contact : metmap@orbifly.com




SOURCES & CREDITS :

   NOAA